sensor_id;sensor_type;location;lat;lon;timestamp;P1;durP1;ratioP1;P2;durP2;ratioP2
55364;SDS011;41245;45.384;20.390;2022-09-01T00:02:16;12.55;;;9.73;;
55364;SDS011;41245;45.384;20.390;2022-09-01T00:04:42;15.23;;;9.88;;
55364;SDS011;41245;45.384;20.390;2022-09-01T00:07:09;11.90;;;9.85;;
55364;SDS011;41245;45.384;20.390;2022-09-01T00:09:37;11.90;;;9.55;;
55364;SDS011;41245;45.384;20.390;2022-09-01T00:12:05;14.60;;;9.85;;
55364;SDS011;41245;45.384;20.390;2022-09-01T00:17:01;11.95;;;9.25;;
55364;SDS011;41245;45.384;20.390;2022-09-01T00:19:28;16.65;;;9.77;;
55364;SDS011;41245;45.384;20.390;2022-09-01T00:21:55;10.70;;;9.60;;
55364;SDS011;41245;45.384;20.390;2022-09-01T00:24:21;14.52;;;9.20;;
55364;SDS011;41245;45.384;20.390;2022-09-01T00:26:47;14.43;;;10.02;;
55364;SDS011;41245;45.384;20.390;2022-09-01T00:29:13;10.80;;;9.52;;
55364;SDS011;41245;45.384;20.390;2022-09-01T00:31:40;12.45;;;9.60;;
55364;SDS011;41245;45.384;20.390;2022-09-01T00:34:06;11.85;;;9.40;;
55364;SDS011;41245;45.384;20.390;2022-09-01T00:36:32;11.32;;;8.95;;
55364;SDS011;41245;45.384;20.390;2022-09-01T00:38:58;11.10;;;10.00;;
55364;SDS011;41245;45.384;20.390;2022-09-01T00:41:25;11.73;;;10.05;;
55364;SDS011;41245;45.384;20.390;2022-09-01T00:43:54;11.68;;;9.63;;
55364;SDS011;41245;45.384;20.390;2022-09-01T00:46:26;11.20;;;9.25;;
55364;SDS011;41245;45.384;20.390;2022-09-01T00:49:12;12.70;;;10.40;;
55364;SDS011;41245;45.384;20.390;2022-09-01T00:51:42;12.30;;;9.25;;
55364;SDS011;41245;45.384;20.390;2022-09-01T00:54:12;13.68;;;10.52;;
55364;SDS011;41245;45.384;20.390;2022-09-01T00:56:43;13.32;;;10.73;;
55364;SDS011;41245;45.384;20.390;2022-09-01T00:59:10;13.05;;;10.63;;
55364;SDS011;41245;45.384;20.390;2022-09-01T01:01:37;14.38;;;12.23;;
55364;SDS011;41245;45.384;20.390;2022-09-01T01:04:04;11.65;;;10.32;;
55364;SDS011;41245;45.384;20.390;2022-09-01T01:06:31;12.77;;;10.60;;
55364;SDS011;41245;45.384;20.390;2022-09-01T01:08:58;22.02;;;10.98;;
55364;SDS011;41245;45.384;20.390;2022-09-01T01:11:27;11.60;;;10.05;;
55364;SDS011;41245;45.384;20.390;2022-09-01T01:16:36;14.45;;;10.88;;
55364;SDS011;41245;45.384;20.390;2022-09-01T01:19:42;19.08;;;11.52;;
55364;SDS011;41245;45.384;20.390;2022-09-01T01:23:26;13.98;;;10.23;;
55364;SDS011;41245;45.384;20.390;2022-09-01T01:25:45;13.25;;;9.95;;
55364;SDS011;41245;45.384;20.390;2022-09-01T01:28:33;14.43;;;10.02;;
55364;SDS011;41245;45.384;20.390;2022-09-01T01:31:05;13.82;;;10.02;;
55364;SDS011;41245;45.384;20.390;2022-09-01T01:36:30;14.93;;;10.50;;
55364;SDS011;41245;45.384;20.390;2022-09-01T01:39:22;14.65;;;10.35;;
55364;SDS011;41245;45.384;20.390;2022-09-01T01:41:53;13.50;;;10.15;;
55364;SDS011;41245;45.384;20.390;2022-09-01T01:44:20;12.52;;;10.40;;
55364;SDS011;41245;45.384;20.390;2022-09-01T01:46:50;12.45;;;9.50;;
55364;SDS011;41245;45.384;20.390;2022-09-01T01:49:17;16.83;;;9.70;;
55364;SDS011;41245;45.384;20.390;2022-09-01T01:51:47;12.05;;;9.95;;
55364;SDS011;41245;45.384;20.390;2022-09-01T01:54:21;15.60;;;10.27;;
55364;SDS011;41245;45.384;20.390;2022-09-01T01:56:47;13.20;;;10.10;;
55364;SDS011;41245;45.384;20.390;2022-09-01T01:59:13;13.10;;;10.10;;
55364;SDS011;41245;45.384;20.390;2022-09-01T02:01:40;13.50;;;9.68;;
55364;SDS011;41245;45.384;20.390;2022-09-01T02:04:08;13.50;;;10.15;;
55364;SDS011;41245;45.384;20.390;2022-09-01T02:06:35;13.60;;;9.43;;
55364;SDS011;41245;45.384;20.390;2022-09-01T02:09:05;10.70;;;9.60;;
55364;SDS011;41245;45.384;20.390;2022-09-01T02:11:32;12.70;;;9.73;;
55364;SDS011;41245;45.384;20.390;2022-09-01T02:13:59;16.23;;;10.65;;
55364;SDS011;41245;45.384;20.390;2022-09-01T02:16:26;13.73;;;10.13;;
55364;SDS011;41245;45.384;20.390;2022-09-01T02:18:54;11.30;;;9.30;;
55364;SDS011;41245;45.384;20.390;2022-09-01T02:21:21;12.90;;;9.52;;
55364;SDS011;41245;45.384;20.390;2022-09-01T02:23:49;12.68;;;10.10;;
55364;SDS011;41245;45.384;20.390;2022-09-01T02:26:26;16.25;;;9.77;;
55364;SDS011;41245;45.384;20.390;2022-09-01T02:28:55;10.82;;;9.73;;
55364;SDS011;41245;45.384;20.390;2022-09-01T02:31:26;11.52;;;10.10;;
55364;SDS011;41245;45.384;20.390;2022-09-01T02:33:52;10.55;;;8.93;;
55364;SDS011;41245;45.384;20.390;2022-09-01T02:36:18;14.25;;;9.55;;
55364;SDS011;41245;45.384;20.390;2022-09-01T02:38:45;10.63;;;9.48;;
55364;SDS011;41245;45.384;20.390;2022-09-01T02:41:13;13.77;;;10.02;;
55364;SDS011;41245;45.384;20.390;2022-09-01T02:43:44;13.20;;;10.02;;
55364;SDS011;41245;45.384;20.390;2022-09-01T02:46:10;16.13;;;9.30;;
55364;SDS011;41245;45.384;20.390;2022-09-01T02:48:38;16.48;;;10.10;;
55364;SDS011;41245;45.384;20.390;2022-09-01T02:51:09;14.40;;;9.73;;
55364;SDS011;41245;45.384;20.390;2022-09-01T02:53:38;10.18;;;8.68;;
55364;SDS011;41245;45.384;20.390;2022-09-01T02:56:06;12.82;;;9.02;;
55364;SDS011;41245;45.384;20.390;2022-09-01T02:58:36;11.73;;;9.40;;
55364;SDS011;41245;45.384;20.390;2022-09-01T03:01:10;10.43;;;8.25;;
55364;SDS011;41245;45.384;20.390;2022-09-01T03:03:39;15.55;;;9.18;;
55364;SDS011;41245;45.384;20.390;2022-09-01T03:06:05;12.30;;;10.02;;
55364;SDS011;41245;45.384;20.390;2022-09-01T03:08:34;12.10;;;10.05;;
55364;SDS011;41245;45.384;20.390;2022-09-01T03:11:02;13.20;;;9.40;;
55364;SDS011;41245;45.384;20.390;2022-09-01T03:13:29;11.40;;;9.07;;
55364;SDS011;41245;45.384;20.390;2022-09-01T03:15:55;10.85;;;9.65;;
55364;SDS011;41245;45.384;20.390;2022-09-01T03:18:21;16.90;;;9.43;;
55364;SDS011;41245;45.384;20.390;2022-09-01T03:20:47;13.70;;;9.85;;
55364;SDS011;41245;45.384;20.390;2022-09-01T03:23:14;10.93;;;9.50;;
55364;SDS011;41245;45.384;20.390;2022-09-01T03:25:43;13.90;;;9.88;;
55364;SDS011;41245;45.384;20.390;2022-09-01T03:28:13;15.45;;;10.75;;
55364;SDS011;41245;45.384;20.390;2022-09-01T03:30:44;13.95;;;10.38;;
55364;SDS011;41245;45.384;20.390;2022-09-01T03:33:13;11.88;;;10.45;;
55364;SDS011;41245;45.384;20.390;2022-09-01T03:35:41;13.18;;;10.50;;
55364;SDS011;41245;45.384;20.390;2022-09-01T03:38:08;13.48;;;10.10;;
55364;SDS011;41245;45.384;20.390;2022-09-01T03:40:36;12.77;;;10.77;;
55364;SDS011;41245;45.384;20.390;2022-09-01T03:43:04;17.73;;;10.30;;
55364;SDS011;41245;45.384;20.390;2022-09-01T03:45:33;12.88;;;11.50;;
55364;SDS011;41245;45.384;20.390;2022-09-01T03:48:03;14.82;;;10.95;;
55364;SDS011;41245;45.384;20.390;2022-09-01T03:50:36;14.38;;;10.60;;
55364;SDS011;41245;45.384;20.390;2022-09-01T03:53:05;12.07;;;10.23;;
55364;SDS011;41245;45.384;20.390;2022-09-01T03:55:32;14.32;;;10.82;;
55364;SDS011;41245;45.384;20.390;2022-09-01T03:58:03;13.60;;;10.25;;
55364;SDS011;41245;45.384;20.390;2022-09-01T04:00:36;17.60;;;11.13;;
55364;SDS011;41245;45.384;20.390;2022-09-01T04:03:05;15.23;;;12.00;;
55364;SDS011;41245;45.384;20.390;2022-09-01T04:05:32;15.95;;;11.30;;
55364;SDS011;41245;45.384;20.390;2022-09-01T04:08:02;13.90;;;11.18;;
55364;SDS011;41245;45.384;20.390;2022-09-01T04:10:30;16.05;;;11.13;;
55364;SDS011;41245;45.384;20.390;2022-09-01T04:12:59;17.67;;;12.10;;
55364;SDS011;41245;45.384;20.390;2022-09-01T04:15:26;17.55;;;12.70;;
55364;SDS011;41245;45.384;20.390;2022-09-01T04:17:52;14.77;;;11.65;;
55364;SDS011;41245;45.384;20.390;2022-09-01T04:20:36;12.02;;;9.68;;
55364;SDS011;41245;45.384;20.390;2022-09-01T04:25:54;7.55;;;5.00;;
55364;SDS011;41245;45.384;20.390;2022-09-01T04:28:24;9.75;;;4.63;;
55364;SDS011;41245;45.384;20.390;2022-09-01T04:30:56;7.07;;;3.83;;
55364;SDS011;41245;45.384;20.390;2022-09-01T04:33:26;8.02;;;4.15;;
55364;SDS011;41245;45.384;20.390;2022-09-01T04:36:01;6.20;;;3.60;;
55364;SDS011;41245;45.384;20.390;2022-09-01T04:38:27;8.15;;;3.83;;
55364;SDS011;41245;45.384;20.390;2022-09-01T04:40:54;5.97;;;4.78;;
55364;SDS011;41245;45.384;20.390;2022-09-01T04:43:24;9.63;;;5.25;;
55364;SDS011;41245;45.384;20.390;2022-09-01T04:45:51;10.20;;;4.17;;
55364;SDS011;41245;45.384;20.390;2022-09-01T04:48:18;8.65;;;3.80;;
55364;SDS011;41245;45.384;20.390;2022-09-01T04:50:44;9.68;;;2.92;;
55364;SDS011;41245;45.384;20.390;2022-09-01T04:53:13;5.45;;;3.42;;
55364;SDS011;41245;45.384;20.390;2022-09-01T04:55:40;12.25;;;2.95;;
55364;SDS011;41245;45.384;20.390;2022-09-01T04:58:08;3.15;;;2.40;;
55364;SDS011;41245;45.384;20.390;2022-09-01T05:00:38;9.50;;;2.63;;
55364;SDS011;41245;45.384;20.390;2022-09-01T05:03:05;3.35;;;2.42;;
55364;SDS011;41245;45.384;20.390;2022-09-01T05:05:36;3.63;;;2.45;;
55364;SDS011;41245;45.384;20.390;2022-09-01T05:08:04;3.03;;;2.15;;
55364;SDS011;41245;45.384;20.390;2022-09-01T05:10:30;5.05;;;2.15;;
55364;SDS011;41245;45.384;20.390;2022-09-01T05:12:57;4.93;;;3.05;;
55364;SDS011;41245;45.384;20.390;2022-09-01T05:15:23;31.75;;;3.67;;
55364;SDS011;41245;45.384;20.390;2022-09-01T05:17:48;8.05;;;2.40;;
55364;SDS011;41245;45.384;20.390;2022-09-01T05:20:16;4.15;;;2.30;;
55364;SDS011;41245;45.384;20.390;2022-09-01T05:22:44;2.35;;;2.05;;
55364;SDS011;41245;45.384;20.390;2022-09-01T05:25:10;8.48;;;3.15;;
55364;SDS011;41245;45.384;20.390;2022-09-01T05:27:38;6.40;;;2.85;;
55364;SDS011;41245;45.384;20.390;2022-09-01T05:30:05;6.22;;;3.85;;
55364;SDS011;41245;45.384;20.390;2022-09-01T05:32:33;7.38;;;3.33;;
55364;SDS011;41245;45.384;20.390;2022-09-01T05:35:04;11.93;;;2.70;;
55364;SDS011;41245;45.384;20.390;2022-09-01T05:37:33;4.53;;;2.72;;
55364;SDS011;41245;45.384;20.390;2022-09-01T05:40:02;7.40;;;2.13;;
55364;SDS011;41245;45.384;20.390;2022-09-01T05:42:29;18.90;;;2.60;;
55364;SDS011;41245;45.384;20.390;2022-09-01T05:44:56;4.13;;;1.88;;
55364;SDS011;41245;45.384;20.390;2022-09-01T05:47:22;3.28;;;1.80;;
55364;SDS011;41245;45.384;20.390;2022-09-01T05:49:50;2.55;;;1.88;;
55364;SDS011;41245;45.384;20.390;2022-09-01T05:52:17;3.22;;;1.73;;
55364;SDS011;41245;45.384;20.390;2022-09-01T05:54:50;6.57;;;1.83;;
55364;SDS011;41245;45.384;20.390;2022-09-01T05:57:16;4.30;;;2.20;;
55364;SDS011;41245;45.384;20.390;2022-09-01T05:59:43;4.03;;;2.42;;
55364;SDS011;41245;45.384;20.390;2022-09-01T06:02:13;2.83;;;1.95;;
55364;SDS011;41245;45.384;20.390;2022-09-01T06:04:40;4.88;;;2.92;;
55364;SDS011;41245;45.384;20.390;2022-09-01T06:07:10;2.97;;;2.00;;
55364;SDS011;41245;45.384;20.390;2022-09-01T06:09:41;4.18;;;2.17;;
55364;SDS011;41245;45.384;20.390;2022-09-01T06:12:10;2.65;;;2.03;;
55364;SDS011;41245;45.384;20.390;2022-09-01T06:14:41;6.55;;;1.60;;
55364;SDS011;41245;45.384;20.390;2022-09-01T06:17:08;8.05;;;1.90;;
55364;SDS011;41245;45.384;20.390;2022-09-01T06:19:36;2.95;;;1.95;;
55364;SDS011;41245;45.384;20.390;2022-09-01T06:22:05;8.10;;;2.78;;
55364;SDS011;41245;45.384;20.390;2022-09-01T06:24:31;5.43;;;1.90;;
55364;SDS011;41245;45.384;20.390;2022-09-01T06:26:57;2.20;;;1.67;;
55364;SDS011;41245;45.384;20.390;2022-09-01T06:29:23;6.63;;;1.92;;
55364;SDS011;41245;45.384;20.390;2022-09-01T06:31:49;10.57;;;2.42;;
55364;SDS011;41245;45.384;20.390;2022-09-01T06:34:16;2.85;;;1.88;;
55364;SDS011;41245;45.384;20.390;2022-09-01T06:36:43;4.22;;;1.58;;
55364;SDS011;41245;45.384;20.390;2022-09-01T06:39:10;9.30;;;2.53;;
55364;SDS011;41245;45.384;20.390;2022-09-01T06:41:52;3.88;;;2.63;;
55364;SDS011;41245;45.384;20.390;2022-09-01T06:44:19;4.00;;;2.03;;
55364;SDS011;41245;45.384;20.390;2022-09-01T06:46:50;5.03;;;1.83;;
55364;SDS011;41245;45.384;20.390;2022-09-01T06:49:17;6.22;;;2.20;;
55364;SDS011;41245;45.384;20.390;2022-09-01T06:51:45;3.20;;;1.67;;
55364;SDS011;41245;45.384;20.390;2022-09-01T06:54:13;10.77;;;2.15;;
55364;SDS011;41245;45.384;20.390;2022-09-01T06:56:40;5.97;;;2.70;;
55364;SDS011;41245;45.384;20.390;2022-09-01T06:59:06;4.28;;;1.52;;
55364;SDS011;41245;45.384;20.390;2022-09-01T07:01:32;3.22;;;1.95;;
55364;SDS011;41245;45.384;20.390;2022-09-01T07:03:59;8.80;;;2.42;;
55364;SDS011;41245;45.384;20.390;2022-09-01T07:06:25;6.45;;;1.98;;
55364;SDS011;41245;45.384;20.390;2022-09-01T07:08:55;4.70;;;1.25;;
55364;SDS011;41245;45.384;20.390;2022-09-01T07:11:28;5.50;;;1.88;;
55364;SDS011;41245;45.384;20.390;2022-09-01T07:14:00;4.47;;;1.90;;
55364;SDS011;41245;45.384;20.390;2022-09-01T07:16:29;8.75;;;2.85;;
55364;SDS011;41245;45.384;20.390;2022-09-01T07:18:59;14.90;;;3.65;;
55364;SDS011;41245;45.384;20.390;2022-09-01T07:21:26;8.00;;;3.22;;
55364;SDS011;41245;45.384;20.390;2022-09-01T07:23:53;14.45;;;3.15;;
55364;SDS011;41245;45.384;20.390;2022-09-01T07:26:21;36.90;;;5.65;;
55364;SDS011;41245;45.384;20.390;2022-09-01T07:28:49;20.10;;;5.68;;
55364;SDS011;41245;45.384;20.390;2022-09-01T07:31:17;13.88;;;3.55;;
55364;SDS011;41245;45.384;20.390;2022-09-01T07:33:57;0.93;;;0.70;;
55364;SDS011;41245;45.384;20.390;2022-09-01T07:36:25;6.55;;;2.22;;
55364;SDS011;41245;45.384;20.390;2022-09-01T07:38:51;17.92;;;3.22;;
55364;SDS011;41245;45.384;20.390;2022-09-01T07:41:21;3.00;;;1.70;;
55364;SDS011;41245;45.384;20.390;2022-09-01T07:43:48;5.68;;;2.83;;
55364;SDS011;41245;45.384;20.390;2022-09-01T07:46:17;10.27;;;3.47;;
55364;SDS011;41245;45.384;20.390;2022-09-01T07:48:43;1.58;;;1.48;;
55364;SDS011;41245;45.384;20.390;2022-09-01T07:51:13;0.70;;;0.68;;
55364;SDS011;41245;45.384;20.390;2022-09-01T07:53:42;0.85;;;0.63;;
55364;SDS011;41245;45.384;20.390;2022-09-01T07:56:10;0.08;;;0.08;;
55364;SDS011;41245;45.384;20.390;2022-09-01T07:58:37;0.43;;;0.38;;
55364;SDS011;41245;45.384;20.390;2022-09-01T08:01:07;0.22;;;0.22;;
55364;SDS011;41245;45.384;20.390;2022-09-01T08:03:34;0.13;;;0.13;;
55364;SDS011;41245;45.384;20.390;2022-09-01T08:06:03;0.10;;;0.10;;
55364;SDS011;41245;45.384;20.390;2022-09-01T08:08:31;0.00;;;0.00;;
55364;SDS011;41245;45.384;20.390;2022-09-01T08:10:57;0.25;;;0.25;;
55364;SDS011;41245;45.384;20.390;2022-09-01T08:13:23;0.10;;;0.10;;
55364;SDS011;41245;45.384;20.390;2022-09-01T08:15:50;0.00;;;0.00;;
55364;SDS011;41245;45.384;20.390;2022-09-01T08:18:16;0.15;;;0.15;;
55364;SDS011;41245;45.384;20.390;2022-09-01T08:20:42;0.15;;;0.15;;
55364;SDS011;41245;45.384;20.390;2022-09-01T08:23:10;0.08;;;0.08;;
55364;SDS011;41245;45.384;20.390;2022-09-01T08:25:37;0.05;;;0.05;;
55364;SDS011;41245;45.384;20.390;2022-09-01T08:28:04;0.28;;;0.10;;
55364;SDS011;41245;45.384;20.390;2022-09-01T08:30:31;0.00;;;0.00;;
55364;SDS011;41245;45.384;20.390;2022-09-01T08:32:58;0.52;;;0.20;;
55364;SDS011;41245;45.384;20.390;2022-09-01T08:35:25;0.30;;;0.30;;
55364;SDS011;41245;45.384;20.390;2022-09-01T08:37:53;0.57;;;0.57;;
55364;SDS011;41245;45.384;20.390;2022-09-01T08:40:20;1.05;;;0.15;;
55364;SDS011;41245;45.384;20.390;2022-09-01T08:47:52;14.32;;;7.15;;
55364;SDS011;41245;45.384;20.390;2022-09-01T08:50:20;15.23;;;6.88;;
55364;SDS011;41245;45.384;20.390;2022-09-01T08:53:04;13.52;;;6.53;;
55364;SDS011;41245;45.384;20.390;2022-09-01T08:55:35;7.85;;;5.03;;
55364;SDS011;41245;45.384;20.390;2022-09-01T08:58:02;12.32;;;6.28;;
55364;SDS011;41245;45.384;20.390;2022-09-01T09:00:32;10.15;;;4.78;;
55364;SDS011;41245;45.384;20.390;2022-09-01T09:03:16;13.05;;;4.80;;
55364;SDS011;41245;45.384;20.390;2022-09-01T09:05:49;12.60;;;5.20;;
55364;SDS011;41245;45.384;20.390;2022-09-01T09:16:39;10.95;;;7.10;;
55364;SDS011;41245;45.384;20.390;2022-09-01T09:19:12;10.43;;;5.53;;
55364;SDS011;41245;45.384;20.390;2022-09-01T09:21:42;8.15;;;5.40;;
55364;SDS011;41245;45.384;20.390;2022-09-01T09:24:09;10.32;;;5.25;;
55364;SDS011;41245;45.384;20.390;2022-09-01T09:26:37;5.88;;;4.68;;
55364;SDS011;41245;45.384;20.390;2022-09-01T09:29:04;15.35;;;6.47;;
55364;SDS011;41245;45.384;20.390;2022-09-01T09:31:31;14.43;;;5.20;;
55364;SDS011;41245;45.384;20.390;2022-09-01T09:33:58;12.13;;;5.45;;
55364;SDS011;41245;45.384;20.390;2022-09-01T09:36:34;9.73;;;5.32;;
55364;SDS011;41245;45.384;20.390;2022-09-01T09:41:33;16.15;;;7.78;;
55364;SDS011;41245;45.384;20.390;2022-09-01T09:44:04;15.18;;;9.38;;
55364;SDS011;41245;45.384;20.390;2022-09-01T09:51:33;10.25;;;5.03;;
55364;SDS011;41245;45.384;20.390;2022-09-01T09:56:37;18.35;;;5.10;;
55364;SDS011;41245;45.384;20.390;2022-09-01T09:59:15;9.13;;;4.30;;
55364;SDS011;41245;45.384;20.390;2022-09-01T10:01:42;10.10;;;4.70;;
55364;SDS011;41245;45.384;20.390;2022-09-01T10:04:08;8.90;;;5.13;;
55364;SDS011;41245;45.384;20.390;2022-09-01T10:06:39;13.95;;;5.15;;
55364;SDS011;41245;45.384;20.390;2022-09-01T10:09:14;13.95;;;5.32;;
55364;SDS011;41245;45.384;20.390;2022-09-01T10:11:42;14.27;;;5.38;;
55364;SDS011;41245;45.384;20.390;2022-09-01T10:14:10;7.95;;;4.50;;
55364;SDS011;41245;45.384;20.390;2022-09-01T10:16:43;9.80;;;3.88;;
55364;SDS011;41245;45.384;20.390;2022-09-01T10:19:12;14.30;;;4.20;;
55364;SDS011;41245;45.384;20.390;2022-09-01T10:21:40;11.45;;;4.35;;
55364;SDS011;41245;45.384;20.390;2022-09-01T10:24:16;8.38;;;5.43;;
55364;SDS011;41245;45.384;20.390;2022-09-01T10:27:01;7.82;;;5.60;;
55364;SDS011;41245;45.384;20.390;2022-09-01T10:29:41;6.80;;;5.00;;
55364;SDS011;41245;45.384;20.390;2022-09-01T10:32:11;9.20;;;5.13;;
55364;SDS011;41245;45.384;20.390;2022-09-01T10:34:41;9.82;;;5.28;;
55364;SDS011;41245;45.384;20.390;2022-09-01T10:37:09;14.95;;;5.65;;
55364;SDS011;41245;45.384;20.390;2022-09-01T10:40:08;16.67;;;7.22;;
55364;SDS011;41245;45.384;20.390;2022-09-01T10:42:35;10.13;;;5.40;;
55364;SDS011;41245;45.384;20.390;2022-09-01T10:45:02;8.05;;;5.00;;
55364;SDS011;41245;45.384;20.390;2022-09-01T10:47:31;14.32;;;5.32;;
55364;SDS011;41245;45.384;20.390;2022-09-01T10:50:04;8.82;;;4.30;;
55364;SDS011;41245;45.384;20.390;2022-09-01T10:53:04;10.07;;;4.80;;
55364;SDS011;41245;45.384;20.390;2022-09-01T10:55:31;5.45;;;4.47;;
55364;SDS011;41245;45.384;20.390;2022-09-01T10:58:18;9.73;;;4.38;;
55364;SDS011;41245;45.384;20.390;2022-09-01T11:00:47;13.20;;;5.95;;
55364;SDS011;41245;45.384;20.390;2022-09-01T11:08:21;5.95;;;4.35;;
55364;SDS011;41245;45.384;20.390;2022-09-01T11:11:06;9.25;;;4.75;;
55364;SDS011;41245;45.384;20.390;2022-09-01T11:13:53;8.52;;;5.03;;
55364;SDS011;41245;45.384;20.390;2022-09-01T11:18:50;11.18;;;4.65;;
55364;SDS011;41245;45.384;20.390;2022-09-01T11:21:23;7.75;;;5.05;;
55364;SDS011;41245;45.384;20.390;2022-09-01T11:24:42;7.30;;;4.82;;
55364;SDS011;41245;45.384;20.390;2022-09-01T11:26:56;9.23;;;4.88;;
55364;SDS011;41245;45.384;20.390;2022-09-01T11:32:15;12.48;;;5.65;;
55364;SDS011;41245;45.384;20.390;2022-09-01T11:34:43;9.35;;;5.30;;
55364;SDS011;41245;45.384;20.390;2022-09-01T11:37:13;6.10;;;4.40;;
55364;SDS011;41245;45.384;20.390;2022-09-01T11:39:42;7.63;;;5.23;;
55364;SDS011;41245;45.384;20.390;2022-09-01T11:47:32;7.72;;;5.38;;
55364;SDS011;41245;45.384;20.390;2022-09-01T11:50:03;14.10;;;6.07;;
55364;SDS011;41245;45.384;20.390;2022-09-01T11:52:31;6.05;;;4.70;;
55364;SDS011;41245;45.384;20.390;2022-09-01T11:55:02;10.93;;;5.93;;
55364;SDS011;41245;45.384;20.390;2022-09-01T11:57:31;9.93;;;5.50;;
55364;SDS011;41245;45.384;20.390;2022-09-01T12:00:00;13.63;;;4.82;;
55364;SDS011;41245;45.384;20.390;2022-09-01T12:02:47;7.28;;;4.25;;
55364;SDS011;41245;45.384;20.390;2022-09-01T12:07:55;10.00;;;5.25;;
55364;SDS011;41245;45.384;20.390;2022-09-01T12:15:35;7.75;;;4.90;;
55364;SDS011;41245;45.384;20.390;2022-09-01T12:18:20;7.85;;;4.97;;
55364;SDS011;41245;45.384;20.390;2022-09-01T12:20:52;7.85;;;5.05;;
55364;SDS011;41245;45.384;20.390;2022-09-01T12:26:15;15.82;;;6.13;;
55364;SDS011;41245;45.384;20.390;2022-09-01T12:31:14;11.38;;;5.60;;
55364;SDS011;41245;45.384;20.390;2022-09-01T12:33:42;11.48;;;5.53;;
55364;SDS011;41245;45.384;20.390;2022-09-01T12:36:20;7.40;;;5.57;;
55364;SDS011;41245;45.384;20.390;2022-09-01T12:39:39;7.60;;;4.53;;
55364;SDS011;41245;45.384;20.390;2022-09-01T12:42:02;9.98;;;5.28;;
55364;SDS011;41245;45.384;20.390;2022-09-01T12:45:02;13.10;;;4.65;;
55364;SDS011;41245;45.384;20.390;2022-09-01T12:50:06;7.97;;;4.07;;
55364;SDS011;41245;45.384;20.390;2022-09-01T12:52:35;8.55;;;4.40;;
55364;SDS011;41245;45.384;20.390;2022-09-01T12:55:14;8.40;;;4.10;;
55364;SDS011;41245;45.384;20.390;2022-09-01T12:57:47;8.80;;;5.00;;
55364;SDS011;41245;45.384;20.390;2022-09-01T13:00:23;9.23;;;4.38;;
55364;SDS011;41245;45.384;20.390;2022-09-01T13:03:13;8.48;;;4.25;;
55364;SDS011;41245;45.384;20.390;2022-09-01T13:05:42;7.85;;;3.95;;
55364;SDS011;41245;45.384;20.390;2022-09-01T13:08:16;8.02;;;4.40;;
55364;SDS011;41245;45.384;20.390;2022-09-01T13:11:17;5.60;;;4.55;;
55364;SDS011;41245;45.384;20.390;2022-09-01T13:13:38;6.45;;;4.50;;
55364;SDS011;41245;45.384;20.390;2022-09-01T13:16:04;6.00;;;4.53;;
55364;SDS011;41245;45.384;20.390;2022-09-01T13:18:40;6.47;;;4.13;;
55364;SDS011;41245;45.384;20.390;2022-09-01T13:21:07;10.18;;;4.65;;
55364;SDS011;41245;45.384;20.390;2022-09-01T13:23:33;8.65;;;5.18;;
55364;SDS011;41245;45.384;20.390;2022-09-01T13:25:59;7.95;;;5.00;;
55364;SDS011;41245;45.384;20.390;2022-09-01T13:28:26;6.43;;;4.75;;
55364;SDS011;41245;45.384;20.390;2022-09-01T13:30:53;6.07;;;4.28;;
55364;SDS011;41245;45.384;20.390;2022-09-01T13:33:24;11.30;;;5.22;;
55364;SDS011;41245;45.384;20.390;2022-09-01T13:35:51;7.28;;;4.80;;
55364;SDS011;41245;45.384;20.390;2022-09-01T13:38:17;12.80;;;4.60;;
55364;SDS011;41245;45.384;20.390;2022-09-01T13:40:44;6.20;;;4.80;;
55364;SDS011;41245;45.384;20.390;2022-09-01T13:43:11;9.20;;;4.82;;
55364;SDS011;41245;45.384;20.390;2022-09-01T13:45:38;6.10;;;5.10;;
55364;SDS011;41245;45.384;20.390;2022-09-01T13:48:05;9.55;;;4.68;;
55364;SDS011;41245;45.384;20.390;2022-09-01T13:50:32;11.73;;;5.03;;
55364;SDS011;41245;45.384;20.390;2022-09-01T13:52:58;8.75;;;4.32;;
55364;SDS011;41245;45.384;20.390;2022-09-01T13:55:29;12.63;;;4.97;;
55364;SDS011;41245;45.384;20.390;2022-09-01T13:57:56;10.20;;;5.45;;
55364;SDS011;41245;45.384;20.390;2022-09-01T14:00:27;7.72;;;5.38;;
55364;SDS011;41245;45.384;20.390;2022-09-01T14:02:57;8.68;;;5.35;;
55364;SDS011;41245;45.384;20.390;2022-09-01T14:05:29;7.60;;;4.55;;
55364;SDS011;41245;45.384;20.390;2022-09-01T14:07:57;10.47;;;4.67;;
55364;SDS011;41245;45.384;20.390;2022-09-01T14:10:27;8.32;;;4.82;;
55364;SDS011;41245;45.384;20.390;2022-09-01T14:12:57;8.35;;;5.25;;
55364;SDS011;41245;45.384;20.390;2022-09-01T14:15:24;9.50;;;4.60;;
55364;SDS011;41245;45.384;20.390;2022-09-01T14:17:50;8.50;;;4.60;;
55364;SDS011;41245;45.384;20.390;2022-09-01T14:20:20;8.65;;;4.47;;
55364;SDS011;41245;45.384;20.390;2022-09-01T14:22:55;9.38;;;4.45;;
55364;SDS011;41245;45.384;20.390;2022-09-01T14:25:22;8.25;;;4.72;;
55364;SDS011;41245;45.384;20.390;2022-09-01T14:27:48;10.10;;;4.72;;
55364;SDS011;41245;45.384;20.390;2022-09-01T14:30:17;9.23;;;4.82;;
55364;SDS011;41245;45.384;20.390;2022-09-01T14:32:45;11.00;;;4.90;;
55364;SDS011;41245;45.384;20.390;2022-09-01T14:35:11;8.95;;;5.18;;
55364;SDS011;41245;45.384;20.390;2022-09-01T14:37:38;9.27;;;5.47;;
55364;SDS011;41245;45.384;20.390;2022-09-01T14:40:04;11.15;;;5.00;;
55364;SDS011;41245;45.384;20.390;2022-09-01T14:42:32;13.00;;;6.13;;
55364;SDS011;41245;45.384;20.390;2022-09-01T14:44:59;13.30;;;5.55;;
55364;SDS011;41245;45.384;20.390;2022-09-01T14:47:26;8.95;;;5.47;;
55364;SDS011;41245;45.384;20.390;2022-09-01T14:49:52;20.25;;;5.88;;
55364;SDS011;41245;45.384;20.390;2022-09-01T14:52:18;11.43;;;5.93;;
55364;SDS011;41245;45.384;20.390;2022-09-01T14:54:46;21.95;;;5.32;;
55364;SDS011;41245;45.384;20.390;2022-09-01T14:57:12;8.95;;;5.22;;
55364;SDS011;41245;45.384;20.390;2022-09-01T14:59:38;10.00;;;5.13;;
55364;SDS011;41245;45.384;20.390;2022-09-01T15:02:05;6.57;;;4.72;;
55364;SDS011;41245;45.384;20.390;2022-09-01T15:04:32;9.52;;;5.60;;
55364;SDS011;41245;45.384;20.390;2022-09-01T15:06:58;11.48;;;6.55;;
55364;SDS011;41245;45.384;20.390;2022-09-01T15:09:24;12.05;;;6.15;;
55364;SDS011;41245;45.384;20.390;2022-09-01T15:11:50;8.30;;;4.80;;
55364;SDS011;41245;45.384;20.390;2022-09-01T15:14:16;8.27;;;5.07;;
55364;SDS011;41245;45.384;20.390;2022-09-01T15:16:42;5.25;;;4.10;;
55364;SDS011;41245;45.384;20.390;2022-09-01T15:19:09;9.57;;;4.57;;
55364;SDS011;41245;45.384;20.390;2022-09-01T15:21:38;6.20;;;4.73;;
55364;SDS011;41245;45.384;20.390;2022-09-01T15:24:06;6.70;;;4.47;;
55364;SDS011;41245;45.384;20.390;2022-09-01T15:26:33;14.25;;;5.65;;
55364;SDS011;41245;45.384;20.390;2022-09-01T15:28:59;6.65;;;4.30;;
55364;SDS011;41245;45.384;20.390;2022-09-01T15:31:28;9.43;;;4.40;;
55364;SDS011;41245;45.384;20.390;2022-09-01T15:33:58;8.00;;;5.07;;
55364;SDS011;41245;45.384;20.390;2022-09-01T15:36:27;7.20;;;4.72;;
55364;SDS011;41245;45.384;20.390;2022-09-01T15:38:55;10.13;;;4.78;;
55364;SDS011;41245;45.384;20.390;2022-09-01T15:41:25;8.38;;;4.22;;
55364;SDS011;41245;45.384;20.390;2022-09-01T15:43:53;8.77;;;4.28;;
55364;SDS011;41245;45.384;20.390;2022-09-01T15:46:19;8.15;;;3.63;;
55364;SDS011;41245;45.384;20.390;2022-09-01T15:48:45;12.05;;;4.72;;